createdAt,value
2023-01-21T07:40:18.051Z,98.13
2023-01-21T07:41:18.017Z,98.33
2023-01-21T07:42:18.013Z,98.33
2023-01-21T07:43:17.999Z,98.33
2023-01-21T07:44:17.986Z,98.07
2023-01-21T07:45:18.367Z,98.80
2023-01-21T07:46:17.962Z,97.96
2023-01-21T07:47:17.958Z,98.02
2023-01-21T07:48:17.930Z,98.33
2023-01-21T07:49:17.919Z,98.23
2023-01-21T07:50:17.915Z,98.02
2023-01-21T07:51:17.950Z,98.33
2023-01-21T07:52:17.899Z,98.23
2023-01-21T07:53:17.888Z,97.91
2023-01-21T07:54:17.871Z,98.27
2023-01-21T07:55:18.089Z,98.59
2023-01-21T07:56:17.860Z,98.13
2023-01-21T07:57:17.859Z,98.44
2023-01-21T07:58:17.822Z,99.18
2023-01-21T07:59:17.813Z,99.24
2023-01-21T08:00:17.819Z,98.60
2023-01-21T08:01:17.887Z,98.71
2023-01-21T08:02:17.909Z,98.66
2023-01-21T08:03:17.763Z,98.88
2023-01-21T08:04:17.763Z,98.52
2023-01-21T08:05:18.091Z,99.36
2023-01-21T08:06:17.729Z,99.10
2023-01-21T08:07:17.748Z,99.10
2023-01-21T08:08:17.720Z,99.31
2023-01-21T08:09:17.703Z,99.01
2023-01-21T08:10:17.683Z,98.80
2023-01-21T08:11:17.699Z,98.80
2023-01-21T08:12:17.699Z,98.34
2023-01-21T08:13:17.653Z,98.44
2023-01-21T08:14:17.636Z,98.69
2023-01-21T08:15:18.030Z,97.98
2023-01-21T08:16:17.663Z,98.86
2023-01-21T08:17:17.621Z,97.98
2023-01-21T08:18:17.596Z,97.56
2023-01-21T08:19:17.599Z,97.93
2023-01-21T08:20:17.570Z,97.52
2023-01-21T08:21:17.561Z,98.25
2023-01-21T08:22:17.591Z,98.04
2023-01-21T08:23:17.565Z,98.25
2023-01-21T08:24:17.528Z,96.99
2023-01-21T08:25:17.915Z,96.57
2023-01-21T08:26:17.516Z,96.78
2023-01-21T08:27:17.529Z,96.78
2023-01-21T08:28:17.520Z,96.78
2023-01-21T08:29:17.485Z,96.67
2023-01-21T08:30:17.460Z,96.31
2023-01-21T08:31:17.558Z,96.11
2023-01-21T08:32:17.449Z,96.42
2023-01-21T08:33:17.443Z,95.48
2023-01-21T08:34:17.424Z,95.68
2023-01-21T08:35:17.664Z,95.90
2023-01-21T08:36:17.391Z,95.06
2023-01-21T08:37:17.394Z,95.06
2023-01-21T08:38:17.382Z,94.70
2023-01-21T08:39:17.379Z,94.91
2023-01-21T08:40:17.357Z,94.81
2023-01-21T08:41:17.338Z,94.38
2023-01-21T08:42:17.341Z,94.18
2023-01-21T08:43:17.329Z,94.18
2023-01-21T08:44:17.356Z,94.49
2023-01-21T08:45:17.681Z,94.49
2023-01-21T08:46:17.292Z,94.49
2023-01-21T08:47:17.308Z,94.70
2023-01-21T08:48:17.268Z,93.76
2023-01-21T08:49:17.308Z,93.65
2023-01-21T08:50:17.257Z,93.82
2023-01-21T08:51:17.277Z,93.40
2023-01-21T08:52:17.225Z,93.87
2023-01-21T08:53:17.224Z,93.19
2023-01-21T08:54:17.194Z,93.40
2023-01-21T08:55:17.465Z,93.40
2023-01-21T08:56:17.179Z,93.67
2023-01-21T08:57:17.200Z,93.30
2023-01-21T08:58:17.163Z,92.77
2023-01-21T08:59:17.131Z,92.57
2023-01-21T09:00:17.165Z,93.08
2023-01-21T09:01:17.173Z,92.57
2023-01-21T09:02:17.185Z,93.04
2023-01-21T09:03:17.129Z,92.73
2023-01-21T09:04:17.097Z,92.73
2023-01-21T09:05:17.383Z,92.83
2023-01-21T09:06:17.073Z,93.15
2023-01-21T09:07:17.053Z,92.31
2023-01-21T09:08:17.046Z,92.63
2023-01-21T09:09:17.033Z,92.10
2023-01-21T09:10:17.027Z,91.79
2023-01-21T09:11:17.022Z,91.58
2023-01-21T09:12:17.034Z,90.95
2023-01-21T09:13:16.990Z,91.54
2023-01-21T09:14:16.981Z,91.33
2023-01-21T09:15:17.271Z,91.12
2023-01-21T09:16:17.034Z,91.12
2023-01-21T09:17:16.962Z,90.59
2023-01-21T09:18:16.923Z,90.81
2023-01-21T09:19:16.929Z,90.28
2023-01-21T09:20:16.914Z,89.83
2023-01-21T09:21:16.916Z,89.40
2023-01-21T09:22:16.917Z,89.51
2023-01-21T09:23:16.879Z,89.61
2023-01-21T09:24:16.871Z,89.78
2023-01-21T09:25:17.121Z,89.68
2023-01-21T09:26:16.848Z,89.26
2023-01-21T09:27:16.845Z,89.01
2023-01-21T09:28:16.831Z,88.70
2023-01-21T09:29:16.812Z,89.28
2023-01-21T09:30:16.800Z,88.55
2023-01-21T09:31:16.867Z,88.59
2023-01-21T09:32:16.801Z,88.45
2023-01-21T09:33:16.751Z,88.24
2023-01-21T09:34:16.747Z,88.51
2023-01-21T09:35:17.059Z,87.93
2023-01-21T09:36:16.720Z,87.26
2023-01-21T09:37:16.721Z,86.67
2023-01-21T09:38:16.715Z,86.88
2023-01-21T09:39:16.702Z,86.94
2023-01-21T09:40:16.694Z,86.21
2023-01-21T09:41:16.722Z,86.43
2023-01-21T09:42:16.669Z,86.53
2023-01-21T09:43:16.641Z,86.63
2023-01-21T09:44:16.644Z,86.77
2023-01-21T09:45:16.968Z,85.69
2023-01-21T09:46:16.688Z,85.80
2023-01-21T09:47:16.608Z,85.59
2023-01-21T09:48:16.615Z,85.49
2023-01-21T09:49:16.572Z,85.27
2023-01-21T09:50:16.606Z,85.03
2023-01-21T09:51:16.629Z,85.49
2023-01-21T09:52:16.617Z,85.03
2023-01-21T09:53:16.542Z,85.13
2023-01-21T09:54:16.528Z,85.06
2023-01-21T09:55:16.717Z,85.34
2023-01-21T09:56:16.504Z,85.34
2023-01-21T09:57:16.482Z,85.13
2023-01-21T09:58:16.507Z,84.82
2023-01-21T09:59:16.458Z,85.03
2023-01-21T10:00:16.457Z,85.03
2023-01-21T10:01:16.573Z,85.03
2023-01-21T10:02:16.436Z,85.24
2023-01-21T10:03:16.429Z,84.92
2023-01-21T10:04:16.500Z,85.34
2023-01-21T10:05:16.687Z,85.34
2023-01-21T10:06:16.399Z,85.03
2023-01-21T10:07:16.384Z,85.24
2023-01-21T10:08:16.382Z,85.13
2023-01-21T10:09:16.360Z,85.44
2023-01-21T10:10:16.359Z,85.34
2023-01-21T10:11:16.325Z,85.13
2023-01-21T10:12:16.324Z,85.03
2023-01-21T10:13:16.313Z,85.10
2023-01-21T10:14:16.295Z,84.88
2023-01-21T10:15:16.497Z,85.41
2023-01-21T10:16:16.383Z,84.99
2023-01-21T10:17:16.261Z,85.36
2023-01-21T10:18:16.271Z,85.16
2023-01-21T10:19:16.239Z,85.05
2023-01-21T10:20:16.361Z,85.47
2023-01-21T10:21:16.234Z,85.36
2023-01-21T10:22:16.218Z,85.47
2023-01-21T10:23:16.401Z,84.95
2023-01-21T10:24:16.195Z,84.95
2023-01-21T10:25:16.482Z,84.95
2023-01-21T10:26:16.163Z,85.02
2023-01-21T10:27:16.151Z,84.91
2023-01-21T10:28:16.151Z,85.36
2023-01-21T10:29:16.127Z,85.22
2023-01-21T10:30:16.123Z,84.91
2023-01-21T10:31:16.296Z,84.81
2023-01-21T10:32:16.117Z,84.81
2023-01-21T10:33:16.092Z,85.22
2023-01-21T10:34:16.082Z,83.56
2023-01-21T10:35:16.401Z,84.18
2023-01-21T10:36:16.071Z,83.97
2023-01-21T10:37:16.032Z,83.91
2023-01-21T10:38:16.054Z,83.91
2023-01-21T10:39:16.013Z,83.87
2023-01-21T10:40:16.017Z,84.18
2023-01-21T10:41:15.988Z,84.53
2023-01-21T10:42:15.983Z,84.95
2023-01-21T10:43:15.992Z,85.02
2023-01-21T10:44:15.959Z,84.39
2023-01-21T10:45:16.245Z,84.91
2023-01-21T10:46:16.071Z,85.12
2023-01-21T10:47:15.933Z,85.12
2023-01-21T10:48:15.933Z,85.33
2023-01-21T10:49:15.909Z,85.22
2023-01-21T10:50:15.918Z,85.43
2023-01-21T10:51:16.034Z,85.33
2023-01-21T10:52:15.891Z,85.12
2023-01-21T10:53:15.865Z,85.53
2023-01-21T10:54:15.858Z,85.22
2023-01-21T10:55:16.210Z,85.43
2023-01-21T10:56:15.828Z,85.64
2023-01-21T10:57:15.813Z,85.43
2023-01-21T10:58:15.832Z,85.33
2023-01-21T10:59:15.798Z,85.53
2023-01-21T11:00:15.792Z,85.53
2023-01-21T11:01:15.833Z,84.91
2023-01-21T11:02:15.859Z,84.91
2023-01-21T11:03:15.766Z,84.84
2023-01-21T11:04:15.732Z,85.12
2023-01-21T11:05:16.024Z,85.33
2023-01-21T11:06:15.711Z,85.64
2023-01-21T11:07:15.696Z,87.52
2023-01-21T11:08:15.725Z,87.52
2023-01-21T11:09:15.683Z,87.52
2023-01-21T11:10:15.666Z,87.68
2023-01-21T11:11:15.656Z,87.58
2023-01-21T11:12:16.190Z,86.54
2023-01-21T11:13:15.626Z,86.65
2023-01-21T11:14:15.633Z,85.39
2023-01-21T11:15:16.137Z,84.87
2023-01-21T11:16:15.617Z,85.08
2023-01-21T11:17:15.596Z,85.29
2023-01-21T11:18:15.579Z,85.46
2023-01-21T11:19:15.597Z,85.02
2023-01-21T11:20:15.553Z,85.29
2023-01-21T11:21:15.541Z,84.98
2023-01-21T11:22:15.545Z,85.19
2023-01-21T11:23:15.527Z,84.94
2023-01-21T11:24:15.550Z,84.42
2023-01-21T11:25:15.968Z,84.00
2023-01-21T11:26:15.487Z,83.48
2023-01-21T11:27:15.469Z,83.52
2023-01-21T11:28:15.465Z,83.42
2023-01-21T11:29:15.458Z,83.20
2023-01-21T11:30:37.121Z,83.31
2023-01-21T11:31:16.603Z,83.10
2023-01-21T11:32:15.598Z,83.31
2023-01-21T11:33:15.413Z,83.35
2023-01-21T11:34:15.425Z,83.62
2023-01-21T11:35:15.394Z,83.62
2023-01-21T11:36:15.384Z,83.35
2023-01-21T11:37:15.444Z,81.85
2023-01-21T11:38:15.369Z,82.41
2023-01-21T11:39:15.346Z,82.51
2023-01-21T11:40:16.524Z,82.41
2023-01-21T11:41:15.317Z,83.25
2023-01-21T11:42:15.304Z,83.76
2023-01-21T11:43:15.301Z,83.73
2023-01-21T11:44:15.317Z,84.28
2023-01-21T11:45:15.692Z,83.42
2023-01-21T11:46:15.349Z,83.35
2023-01-21T11:47:15.244Z,83.76
2023-01-21T11:48:15.251Z,83.25
2023-01-21T11:49:15.248Z,83.35
2023-01-21T11:50:15.517Z,83.35
2023-01-21T11:51:15.260Z,83.35
2023-01-21T11:52:15.192Z,82.72
2023-01-21T11:53:15.197Z,83.56
2023-01-21T11:54:15.170Z,83.35
2023-01-21T11:55:15.174Z,83.66
2023-01-21T11:56:15.204Z,83.45
2023-01-21T11:57:15.132Z,83.45
2023-01-21T11:58:15.141Z,83.35
2023-01-21T11:59:15.110Z,83.97
2023-01-21T12:00:15.315Z,83.97
2023-01-21T12:01:15.099Z,84.25
2023-01-21T12:02:15.079Z,84.18
2023-01-21T12:03:15.065Z,84.39
2023-01-21T12:04:15.075Z,84.28
2023-01-21T12:05:15.053Z,84.28
2023-01-21T12:06:15.061Z,83.66
2023-01-21T12:07:15.025Z,83.35
2023-01-21T12:08:15.031Z,83.97
2023-01-21T12:09:15.005Z,84.08
2023-01-21T12:10:15.266Z,83.97
2023-01-21T12:11:14.975Z,83.76
2023-01-21T12:12:15.022Z,83.76
2023-01-21T12:13:14.965Z,83.83
2023-01-21T12:14:14.952Z,84.08
2023-01-21T12:15:14.941Z,84.25
2023-01-21T12:16:14.988Z,83.73
2023-01-21T12:17:14.913Z,83.76
2023-01-21T12:18:14.910Z,83.83
2023-01-21T12:19:14.895Z,83.52
2023-01-21T12:20:15.332Z,83.20
2023-01-21T12:21:14.862Z,83.10
2023-01-21T12:22:14.869Z,83.42
2023-01-21T12:23:14.851Z,83.00
2023-01-21T12:24:14.846Z,83.52
2023-01-21T12:25:14.822Z,83.10
2023-01-21T12:26:14.826Z,83.10
2023-01-21T12:27:14.810Z,82.89
2023-01-21T12:28:14.809Z,82.17
2023-01-21T12:29:14.775Z,82.17
2023-01-21T12:30:14.842Z,82.58
2023-01-21T12:31:14.890Z,82.13
2023-01-21T12:32:14.743Z,81.23
2023-01-21T12:33:14.740Z,81.43
2023-01-21T12:34:14.733Z,82.06
2023-01-21T12:35:15.033Z,82.48
2023-01-21T12:36:14.709Z,82.48
2023-01-21T12:37:14.695Z,82.34
2023-01-21T12:38:14.691Z,81.29
2023-01-21T12:39:14.671Z,81.96
2023-01-21T12:40:14.790Z,80.98
2023-01-21T12:41:14.633Z,81.29
2023-01-21T12:42:14.646Z,81.19
2023-01-21T12:43:14.613Z,81.40
2023-01-21T12:44:14.643Z,81.29
2023-01-21T12:45:14.629Z,81.75
2023-01-21T12:46:14.659Z,81.81
2023-01-21T12:47:14.569Z,81.40
2023-01-21T12:48:14.566Z,81.50
2023-01-21T12:49:14.559Z,81.09
2023-01-21T12:50:14.544Z,80.88
2023-01-21T12:51:14.620Z,81.09
2023-01-21T12:52:14.519Z,81.19
2023-01-21T12:53:14.515Z,80.67
2023-01-21T12:54:14.523Z,80.67
2023-01-21T12:55:14.546Z,80.67
2023-01-21T12:56:14.485Z,81.09
2023-01-21T12:57:14.455Z,81.40
2023-01-21T12:58:14.464Z,81.50
2023-01-21T12:59:14.449Z,81.40
2023-01-21T13:00:14.507Z,81.29
2023-01-21T13:01:14.528Z,81.36
2023-01-21T13:02:14.465Z,80.88
2023-01-21T13:03:14.388Z,80.53
2023-01-21T13:04:14.397Z,80.63
2023-01-21T13:05:14.498Z,81.05
2023-01-21T13:06:14.372Z,80.63
2023-01-21T13:07:14.348Z,80.74
2023-01-21T13:08:14.335Z,80.74
2023-01-21T13:09:14.350Z,81.15
2023-01-21T13:10:14.367Z,80.84
2023-01-21T13:11:14.311Z,80.22
2023-01-21T13:12:14.314Z,80.32
2023-01-21T13:13:14.278Z,80.74
2023-01-21T13:14:14.287Z,79.69
2023-01-21T13:15:14.289Z,79.49
2023-01-21T13:16:14.313Z,79.69
2023-01-21T13:17:14.250Z,79.28
2023-01-21T13:18:14.235Z,79.17
2023-01-21T13:19:14.213Z,79.38
2023-01-21T13:20:14.209Z,80.43
2023-01-21T13:21:14.191Z,79.80
2023-01-21T13:22:14.175Z,79.63
2023-01-21T13:23:14.170Z,79.69
2023-01-21T13:24:14.238Z,79.38
2023-01-21T13:25:14.172Z,79.07
2023-01-21T13:26:14.177Z,79.28
2023-01-21T13:27:14.155Z,79.49
2023-01-21T13:28:14.125Z,79.07
2023-01-21T13:29:14.113Z,79.38
2023-01-21T13:30:14.284Z,78.97
2023-01-21T13:31:14.202Z,78.66
2023-01-21T13:32:14.209Z,78.66
2023-01-21T13:33:14.069Z,78.76
2023-01-21T13:34:14.041Z,78.90
2023-01-21T13:35:14.061Z,78.97
2023-01-21T13:36:14.029Z,78.90
2023-01-21T13:37:14.011Z,79.00
2023-01-21T13:38:13.995Z,78.14
2023-01-21T13:39:13.999Z,78.55
2023-01-21T13:40:13.998Z,79.00
2023-01-21T13:41:13.979Z,78.49
2023-01-21T13:42:13.951Z,78.66
2023-01-21T13:43:13.958Z,79.07
2023-01-21T13:44:13.927Z,79.42
2023-01-21T13:45:13.974Z,78.80
2023-01-21T13:46:14.042Z,79.42
2023-01-21T13:47:13.918Z,78.45
2023-01-21T13:48:13.919Z,78.86
2023-01-21T13:49:13.888Z,78.45
2023-01-21T13:50:13.882Z,78.69
2023-01-21T13:51:13.957Z,78.80
2023-01-21T13:52:13.857Z,78.03
2023-01-21T13:53:13.844Z,78.14
2023-01-21T13:54:13.827Z,79.00
2023-01-21T13:55:13.829Z,78.76
2023-01-21T13:56:13.828Z,78.76
2023-01-21T13:57:13.797Z,79.28
2023-01-21T13:58:13.771Z,78.90
2023-01-21T13:59:13.760Z,78.80
2023-01-21T14:00:13.750Z,78.90
2023-01-21T14:01:13.871Z,78.49
2023-01-21T14:02:13.847Z,78.80
2023-01-21T14:03:13.723Z,78.90
2023-01-21T14:04:13.742Z,78.59
2023-01-21T14:05:13.694Z,78.59
2023-01-21T14:06:13.693Z,78.80
2023-01-21T14:07:13.688Z,78.94
2023-01-21T14:08:13.657Z,78.59
2023-01-21T14:09:13.662Z,79.00
2023-01-21T14:10:13.649Z,78.69
2023-01-21T14:11:13.643Z,78.90
2023-01-21T14:12:13.614Z,78.49
2023-01-21T14:13:13.608Z,79.35
2023-01-21T14:14:13.602Z,79.32
2023-01-21T14:15:13.595Z,79.32
2023-01-21T14:16:13.636Z,79.42
2023-01-21T14:17:13.562Z,79.52
2023-01-21T14:18:13.542Z,79.63
2023-01-21T14:19:13.535Z,79.42
2023-01-21T14:20:13.547Z,79.32
2023-01-21T14:21:13.519Z,79.11
2023-01-21T14:22:13.527Z,79.52
2023-01-21T14:23:13.505Z,79.32
2023-01-21T14:24:13.490Z,79.32
2023-01-21T14:25:13.502Z,79.21
2023-01-21T14:26:13.456Z,79.32
2023-01-21T14:27:15.215Z,79.21
2023-01-21T14:28:13.433Z,79.32
2023-01-21T14:29:13.424Z,79.42
2023-01-21T14:30:13.428Z,79.42
2023-01-21T14:31:13.610Z,79.77
2023-01-21T14:32:14.019Z,80.19
2023-01-21T14:33:13.382Z,79.87
2023-01-21T14:34:13.382Z,80.15
2023-01-21T14:35:13.368Z,80.60
2023-01-21T14:36:13.360Z,79.87
2023-01-21T14:37:13.353Z,79.63
2023-01-21T14:38:13.318Z,80.60
2023-01-21T14:39:13.325Z,80.05
2023-01-21T14:40:13.296Z,79.11
2023-01-21T14:41:13.303Z,79.42
2023-01-21T14:42:13.287Z,79.32
2023-01-21T14:43:13.295Z,79.14
2023-01-21T14:44:13.250Z,79.35
2023-01-21T14:45:13.245Z,78.83
2023-01-21T14:46:13.367Z,78.73
2023-01-21T14:47:13.235Z,78.94
2023-01-21T14:48:13.221Z,78.73
2023-01-21T14:49:13.207Z,79.25
2023-01-21T14:50:13.183Z,79.25
2023-01-21T14:51:13.297Z,78.94
2023-01-21T14:52:13.187Z,78.94
2023-01-21T14:53:13.174Z,78.83
2023-01-21T14:54:13.164Z,78.52
2023-01-21T14:55:13.139Z,79.04
2023-01-21T14:56:15.869Z,79.04
2023-01-21T14:57:18.724Z,78.83
2023-01-21T14:58:14.309Z,79.39
2023-01-21T14:59:13.101Z,79.46
2023-01-21T15:00:13.103Z,78.63
2023-01-21T15:01:13.136Z,78.83
2023-01-21T15:02:13.139Z,78.94
2023-01-21T15:03:13.065Z,78.94
2023-01-21T15:04:13.026Z,79.14
2023-01-21T15:05:13.036Z,79.56
2023-01-21T15:06:13.016Z,80.08
2023-01-21T15:07:13.010Z,80.19
2023-01-21T15:08:13.034Z,80.71
2023-01-21T15:09:12.975Z,80.88
2023-01-21T15:10:12.958Z,81.23
2023-01-21T15:11:13.067Z,80.29
2023-01-21T15:12:12.950Z,80.19
2023-01-21T15:13:12.948Z,79.98
2023-01-21T15:14:12.920Z,80.60
2023-01-21T15:15:12.923Z,80.67
2023-01-21T15:16:12.961Z,80.71
2023-01-21T15:17:12.883Z,79.66
2023-01-21T15:18:12.881Z,79.94
2023-01-21T15:19:12.890Z,80.81
2023-01-21T15:20:12.858Z,80.19
2023-01-21T15:21:12.853Z,79.98
2023-01-21T15:22:12.840Z,79.98
2023-01-21T15:23:12.821Z,79.77
2023-01-21T15:24:12.854Z,79.56
2023-01-21T15:25:12.806Z,79.46
2023-01-21T15:26:12.820Z,79.04
2023-01-21T15:27:12.771Z,79.14
2023-01-21T15:28:12.772Z,78.83
2023-01-21T15:29:12.776Z,79.35
2023-01-21T15:30:12.748Z,79.56
2023-01-21T15:31:12.881Z,79.46
2023-01-21T15:32:14.384Z,79.46
2023-01-21T15:33:12.729Z,79.77
2023-01-21T15:34:12.716Z,79.98
2023-01-21T15:35:12.720Z,79.87
2023-01-21T15:36:12.679Z,79.87
2023-01-21T15:37:12.672Z,80.81
2023-01-21T15:38:12.647Z,80.29
2023-01-21T15:39:12.664Z,80.19
2023-01-21T15:40:12.659Z,80.29
2023-01-21T15:41:12.633Z,79.87
2023-01-21T15:42:12.621Z,80.71
2023-01-21T15:43:12.606Z,80.81
2023-01-21T15:44:12.582Z,80.91
2023-01-21T15:45:12.592Z,81.05
2023-01-21T15:46:12.641Z,80.54
2023-01-21T15:47:12.546Z,81.26
2023-01-21T15:48:12.536Z,81.26
2023-01-21T15:49:12.532Z,81.05
2023-01-21T15:50:12.541Z,81.37
2023-01-21T15:51:12.604Z,81.26
2023-01-21T15:52:12.482Z,81.05
2023-01-21T15:53:12.490Z,81.30
2023-01-21T15:54:12.462Z,81.47
2023-01-21T15:55:12.469Z,81.62
2023-01-21T15:56:12.480Z,81.62
2023-01-21T15:57:12.453Z,81.72
2023-01-21T15:58:12.443Z,81.09
2023-01-21T15:59:12.412Z,81.20
2023-01-21T16:00:12.398Z,81.51
2023-01-21T16:01:12.433Z,81.72
2023-01-21T16:02:12.471Z,81.72
2023-01-21T16:03:12.383Z,82.34
2023-01-21T16:04:12.368Z,82.24
2023-01-21T16:05:12.360Z,82.76
2023-01-21T16:06:12.342Z,82.24
2023-01-21T16:07:12.343Z,82.55
2023-01-21T16:08:12.398Z,83.07
2023-01-21T16:09:12.396Z,82.76
2023-01-21T16:10:12.296Z,82.97
2023-01-21T16:11:12.299Z,82.24
2023-01-21T16:12:12.312Z,82.55
2023-01-21T16:13:12.255Z,82.20
2023-01-21T16:14:13.842Z,82.55
2023-01-21T16:15:12.241Z,82.51
2023-01-21T16:16:12.317Z,82.34
2023-01-21T16:17:12.230Z,82.41
2023-01-21T16:18:12.194Z,81.93
2023-01-21T16:19:12.192Z,82.24
2023-01-21T16:20:12.185Z,81.47
2023-01-21T16:21:12.178Z,81.82
2023-01-21T16:22:12.164Z,81.72
2023-01-21T16:23:12.142Z,81.47
2023-01-21T16:24:12.126Z,81.62
2023-01-21T16:25:12.124Z,81.89
2023-01-21T16:26:12.111Z,81.68
2023-01-21T16:27:12.110Z,82.14
2023-01-21T16:28:12.100Z,82.14
2023-01-21T16:29:12.077Z,82.55
2023-01-21T16:30:12.078Z,82.55
2023-01-21T16:31:12.206Z,82.41
2023-01-21T16:32:12.066Z,82.31
2023-01-21T16:33:12.093Z,82.97
2023-01-21T16:34:12.014Z,82.93
2023-01-21T16:35:12.019Z,83.07
2023-01-21T16:36:12.005Z,82.24
2023-01-21T16:37:12.000Z,82.24
2023-01-21T16:38:11.981Z,82.93
2023-01-21T16:39:11.976Z,82.41
2023-01-21T16:40:11.969Z,82.10
2023-01-21T16:41:11.958Z,82.03
2023-01-21T16:42:11.942Z,82.10
2023-01-21T16:43:11.935Z,81.58
2023-01-21T16:44:11.936Z,81.16
2023-01-21T16:45:11.891Z,81.41
2023-01-21T16:46:11.974Z,81.37
2023-01-21T16:47:11.899Z,81.62
2023-01-21T16:48:11.856Z,81.41
2023-01-21T16:49:11.849Z,81.82
2023-01-21T16:50:11.833Z,81.72
2023-01-21T16:51:11.887Z,81.37
2023-01-21T16:52:11.824Z,81.68
2023-01-21T16:53:11.803Z,81.41
2023-01-21T16:54:11.796Z,81.68
2023-01-21T16:55:13.030Z,81.68
2023-01-21T16:56:11.766Z,81.51
2023-01-21T16:57:11.771Z,81.58
2023-01-21T16:58:11.743Z,81.58
2023-01-21T16:59:11.751Z,81.05
2023-01-21T17:00:11.761Z,81.37
2023-01-21T17:01:11.768Z,81.16
2023-01-21T17:02:11.749Z,81.51
2023-01-21T17:03:11.691Z,81.16
2023-01-21T17:04:11.680Z,81.68
2023-01-21T17:05:11.700Z,81.47
2023-01-21T17:06:11.654Z,81.72
2023-01-21T17:07:11.663Z,81.58
2023-01-21T17:08:11.685Z,81.16
2023-01-21T17:09:11.626Z,81.20
2023-01-21T17:10:11.608Z,81.16
2023-01-21T17:11:11.625Z,81.30
2023-01-21T17:12:11.603Z,81.51
2023-01-21T17:13:11.614Z,80.64
2023-01-21T17:14:11.562Z,80.64
2023-01-21T17:15:11.562Z,80.57
2023-01-21T17:16:11.594Z,81.37
2023-01-21T17:17:11.551Z,81.41
2023-01-21T17:18:11.539Z,81.09
2023-01-21T17:19:11.512Z,81.30
2023-01-21T17:20:11.504Z,81.09
2023-01-21T17:21:11.532Z,81.82
2023-01-21T17:22:11.489Z,81.30
2023-01-21T17:23:11.497Z,81.82
2023-01-21T17:24:11.464Z,81.37
2023-01-21T17:25:11.443Z,81.62
2023-01-21T17:26:11.446Z,81.30
2023-01-21T17:27:11.441Z,81.30
2023-01-21T17:28:11.432Z,81.30
2023-01-21T17:29:11.417Z,81.62
2023-01-21T17:30:11.397Z,81.72
2023-01-21T17:31:11.527Z,81.30
2023-01-21T17:32:11.401Z,81.51
2023-01-21T17:33:11.380Z,81.51
2023-01-21T17:34:11.364Z,81.62
2023-01-21T17:35:11.344Z,81.20
2023-01-21T17:36:11.348Z,81.09
2023-01-21T17:37:11.303Z,81.30
2023-01-21T17:38:11.324Z,81.41
2023-01-21T17:39:11.300Z,81.62
2023-01-21T17:40:11.298Z,81.82
2023-01-21T17:41:11.272Z,81.76
2023-01-21T17:42:11.251Z,81.93
2023-01-21T17:43:11.265Z,82.48
2023-01-21T17:44:11.243Z,82.55
2023-01-21T17:45:11.216Z,82.07
2023-01-21T17:46:11.303Z,82.55
2023-01-21T17:47:11.200Z,82.80
2023-01-21T17:48:14.437Z,82.55
2023-01-21T17:49:11.184Z,82.90
2023-01-21T17:50:11.160Z,83.22
2023-01-21T17:51:11.244Z,82.90
2023-01-21T17:52:11.148Z,83.11
2023-01-21T17:53:11.149Z,82.90
2023-01-21T17:54:11.116Z,82.70
2023-01-21T17:55:11.101Z,83.11
2023-01-21T17:56:11.091Z,83.74
2023-01-21T17:57:11.102Z,83.22
2023-01-21T17:58:11.086Z,83.32
2023-01-21T17:59:11.055Z,83.22
2023-01-21T18:00:11.049Z,83.22
2023-01-21T18:01:11.122Z,83.42
2023-01-21T18:02:11.053Z,83.84
2023-01-21T18:03:11.093Z,83.74
2023-01-21T18:04:11.047Z,83.63
2023-01-21T18:05:11.009Z,83.63
2023-01-21T18:06:10.981Z,83.80
2023-01-21T18:07:10.983Z,83.80
2023-01-21T18:08:10.975Z,83.74
2023-01-21T18:09:10.944Z,83.49
2023-01-21T18:10:10.953Z,83.53
2023-01-21T18:11:10.933Z,83.74
2023-01-21T18:12:10.916Z,84.47
2023-01-21T18:13:10.915Z,84.22
2023-01-21T18:14:10.895Z,84.22
2023-01-21T18:15:10.889Z,84.16
2023-01-21T18:16:10.960Z,84.22
2023-01-21T18:17:10.856Z,84.01
2023-01-21T18:18:10.878Z,84.22
2023-01-21T18:19:10.828Z,83.74
2023-01-21T18:20:10.859Z,83.59
2023-01-21T18:21:10.823Z,83.63
2023-01-21T18:22:10.803Z,83.70
2023-01-21T18:23:10.819Z,83.74
2023-01-21T18:24:10.859Z,83.74
2023-01-21T18:25:10.780Z,83.49
2023-01-21T18:26:10.777Z,83.74
2023-01-21T18:27:10.741Z,84.47
2023-01-21T18:28:10.759Z,83.74
2023-01-21T18:29:10.720Z,83.49
2023-01-21T18:30:10.713Z,83.80
2023-01-21T18:31:10.946Z,84.57
2023-01-21T18:32:10.705Z,84.01
2023-01-21T18:33:10.692Z,84.16
2023-01-21T18:34:10.681Z,84.16
2023-01-21T18:35:10.653Z,83.84
2023-01-21T18:36:10.682Z,84.36
2023-01-21T18:37:10.646Z,84.05
2023-01-21T18:38:10.634Z,84.47
2023-01-21T18:39:10.632Z,84.47
2023-01-21T18:40:10.603Z,83.95
2023-01-21T18:41:10.583Z,83.70
2023-01-21T18:42:10.579Z,84.36
2023-01-21T18:43:10.577Z,84.26
2023-01-21T18:44:10.583Z,84.33
2023-01-21T18:45:10.542Z,84.67
2023-01-21T18:46:10.570Z,84.57
2023-01-21T18:47:10.515Z,83.95
2023-01-21T18:48:10.521Z,83.84
2023-01-21T18:49:10.528Z,84.26
2023-01-21T18:50:10.508Z,84.36
2023-01-21T18:51:10.530Z,84.47
2023-01-21T18:52:10.490Z,84.36
2023-01-21T18:53:10.450Z,84.57
2023-01-21T18:54:10.452Z,84.36
2023-01-21T18:55:10.433Z,84.47
2023-01-21T18:56:10.433Z,84.47
2023-01-21T18:57:10.409Z,84.57
2023-01-21T18:58:10.408Z,85.24
2023-01-21T18:59:10.396Z,85.30
2023-01-21T19:00:10.386Z,84.88
2023-01-21T19:01:22.012Z,85.20
2023-01-21T19:02:11.452Z,84.99
2023-01-21T19:03:10.372Z,84.47
2023-01-21T19:04:10.375Z,84.72
2023-01-21T19:05:10.329Z,84.36
2023-01-21T19:06:10.305Z,83.74
2023-01-21T19:07:10.290Z,83.84
2023-01-21T19:08:10.312Z,83.95
2023-01-21T19:09:12.489Z,83.84
2023-01-21T19:10:11.403Z,84.05
2023-01-21T19:11:10.255Z,84.16
2023-01-21T19:12:10.254Z,84.05
2023-01-21T19:13:10.280Z,84.47
2023-01-21T19:14:10.262Z,84.57
2023-01-21T19:15:10.215Z,84.57
2023-01-21T19:16:10.257Z,84.47
2023-01-21T19:17:10.187Z,84.36
2023-01-21T19:18:10.168Z,84.36
2023-01-21T19:19:10.179Z,84.36
2023-01-21T19:20:10.147Z,84.05
2023-01-21T19:21:10.146Z,84.36
2023-01-21T19:22:10.151Z,84.67
2023-01-21T19:23:10.123Z,84.47
2023-01-21T19:24:12.096Z,84.67
2023-01-21T19:25:10.088Z,84.57
2023-01-21T19:26:10.099Z,84.36
2023-01-21T19:27:10.069Z,84.36
2023-01-21T19:28:10.069Z,84.40
2023-01-21T19:29:10.066Z,84.40
2023-01-21T19:30:10.046Z,84.47
2023-01-21T19:31:10.214Z,84.57
2023-01-21T19:32:10.135Z,84.36
2023-01-21T19:33:10.024Z,84.26
2023-01-21T19:34:10.020Z,84.05
2023-01-21T19:35:09.992Z,83.84
2023-01-21T19:36:09.968Z,83.84
2023-01-21T19:37:09.958Z,83.95
2023-01-21T19:38:09.962Z,83.95
2023-01-21T19:39:09.958Z,84.16
2023-01-21T19:40:10.021Z,84.16
2023-01-21T19:41:09.913Z,84.26
2023-01-21T19:42:09.898Z,84.36
2023-01-21T19:43:09.900Z,84.16
2023-01-21T19:44:09.906Z,84.36
2023-01-21T19:45:09.874Z,84.26
2023-01-21T19:46:09.853Z,84.05
2023-01-21T19:47:09.837Z,83.74
2023-01-21T19:48:09.834Z,84.26
2023-01-21T19:49:10.330Z,83.84
2023-01-21T19:50:09.830Z,84.16
2023-01-21T19:51:09.881Z,84.05
2023-01-21T19:52:09.802Z,84.26
2023-01-21T19:53:09.803Z,84.36
2023-01-21T19:54:09.777Z,84.47
2023-01-21T19:55:09.762Z,84.36
2023-01-21T19:56:09.777Z,84.36
2023-01-21T19:57:09.731Z,84.47
2023-01-21T19:58:09.719Z,84.36
2023-01-21T19:59:09.714Z,84.36
2023-01-21T20:00:09.711Z,84.61
2023-01-21T20:01:09.705Z,84.78
2023-01-21T20:02:09.781Z,84.99
2023-01-21T20:03:09.658Z,84.67
2023-01-21T20:04:09.669Z,84.99
2023-01-21T20:05:09.635Z,84.99
2023-01-21T20:06:09.644Z,85.10
2023-01-21T20:07:09.613Z,84.78
2023-01-21T20:08:09.686Z,84.99
2023-01-21T20:09:10.686Z,84.99
2023-01-21T20:10:09.587Z,84.99
2023-01-21T20:11:09.565Z,85.61
2023-01-21T20:12:09.604Z,84.88
2023-01-21T20:13:09.546Z,84.74
2023-01-21T20:14:09.564Z,84.78
2023-01-21T20:15:09.528Z,85.10
2023-01-21T20:16:09.550Z,85.20
2023-01-21T20:17:09.508Z,85.10
2023-01-21T20:18:09.509Z,84.95
2023-01-21T20:19:09.495Z,84.99
2023-01-21T20:20:09.490Z,85.16
2023-01-21T20:21:09.462Z,84.99
2023-01-21T20:22:09.446Z,84.99
2023-01-21T20:23:09.433Z,84.99
2023-01-21T20:24:09.460Z,85.10
2023-01-21T20:25:09.411Z,85.10
2023-01-21T20:26:09.418Z,85.10
2023-01-21T20:27:10.798Z,85.10
2023-01-21T20:28:09.409Z,85.20
2023-01-21T20:29:09.364Z,85.30
2023-01-21T20:30:16.106Z,85.10
2023-01-21T20:31:10.455Z,85.10
2023-01-21T20:32:09.348Z,85.58